createdAt,value
2022-09-06T00:01:40.248Z,73.35
2022-09-06T00:04:15.229Z,73.01
2022-09-06T00:06:48.893Z,72.96
2022-09-06T00:09:21.515Z,72.87
2022-09-06T00:11:49.808Z,72.83
2022-09-06T00:14:19.282Z,72.93
2022-09-06T00:16:47.369Z,72.99
2022-09-06T00:19:15.367Z,72.99
2022-09-06T00:21:43.418Z,72.93
2022-09-06T00:24:14.430Z,72.77
2022-09-06T00:26:45.561Z,72.21
2022-09-06T00:29:16.085Z,72.27
2022-09-06T00:31:44.232Z,72.53
2022-09-06T00:34:15.812Z,72.54
2022-09-06T00:36:47.801Z,71.77
2022-09-06T00:39:21.920Z,71.69
2022-09-06T00:41:56.127Z,72.02
2022-09-06T00:44:28.325Z,72.01
2022-09-06T00:47:02.540Z,71.88
2022-09-06T00:49:35.864Z,72.18
2022-09-06T00:52:10.843Z,72.12
2022-09-06T00:54:39.510Z,72.65
2022-09-06T00:57:09.038Z,72.78
2022-09-06T00:59:38.454Z,72.89
2022-09-06T01:02:10.429Z,72.62
2022-09-06T01:04:48.341Z,71.93
2022-09-06T01:07:19.098Z,72.10
2022-09-06T01:09:47.145Z,72.32
2022-09-06T01:12:32.451Z,71.61
2022-09-06T01:15:17.959Z,71.32
2022-09-06T01:18:04.454Z,72.39
2022-09-06T01:20:47.470Z,72.22
2022-09-06T01:23:36.612Z,72.80
2022-09-06T01:26:13.781Z,73.27
2022-09-06T01:28:51.829Z,73.18
2022-09-06T01:31:29.776Z,72.79
2022-09-06T01:34:16.653Z,73.11
2022-09-06T01:37:09.354Z,73.51
2022-09-06T01:39:39.764Z,73.53
2022-09-06T01:42:23.561Z,73.04
2022-09-06T01:44:56.476Z,72.28
2022-09-06T01:47:43.244Z,72.08
2022-09-06T01:50:35.383Z,72.10
2022-09-06T01:53:16.881Z,72.40
2022-09-06T01:55:50.532Z,73.52
2022-09-06T01:58:26.812Z,73.18
2022-09-06T02:00:56.041Z,74.03
2022-09-06T02:03:39.427Z,73.44
2022-09-06T02:06:13.649Z,74.11
2022-09-06T02:08:44.799Z,73.54
2022-09-06T02:11:17.059Z,72.75
2022-09-06T02:13:51.089Z,71.83
2022-09-06T02:16:25.121Z,73.52
2022-09-06T02:18:53.207Z,74.14
2022-09-06T02:21:26.095Z,74.46
2022-09-06T02:23:56.688Z,74.77
2022-09-06T02:26:31.448Z,74.08
2022-09-06T02:28:59.481Z,74.77
2022-09-06T02:31:34.277Z,74.83
2022-09-06T02:34:04.346Z,75.68
2022-09-06T02:36:40.968Z,75.47
2022-09-06T02:39:09.619Z,74.92
2022-09-06T02:41:41.321Z,74.26
2022-09-06T02:44:09.503Z,74.31
2022-09-06T02:46:37.826Z,74.04
2022-09-06T02:49:08.030Z,73.73
2022-09-06T02:51:40.106Z,73.16
2022-09-06T02:54:08.168Z,73.38
2022-09-06T02:56:47.009Z,72.36
2022-09-06T02:59:18.250Z,73.57
2022-09-06T03:01:47.464Z,75.17
2022-09-06T03:04:16.732Z,73.88
2022-09-06T03:06:44.741Z,73.66
2022-09-06T03:09:12.923Z,75.53
2022-09-06T03:11:44.214Z,74.82
2022-09-06T03:14:18.324Z,75.40
2022-09-06T03:16:46.409Z,75.81
2022-09-06T03:19:14.570Z,76.96
2022-09-06T03:21:43.685Z,74.49
2022-09-06T03:24:11.919Z,74.87
2022-09-06T03:26:46.032Z,75.71
2022-09-06T03:29:20.414Z,77.06
2022-09-06T03:31:53.286Z,76.18
2022-09-06T03:34:22.657Z,74.75
2022-09-06T03:36:50.641Z,76.81
2022-09-06T03:39:18.777Z,75.42
2022-09-06T03:41:48.498Z,75.46
2022-09-06T03:44:16.501Z,74.96
2022-09-06T03:46:44.526Z,76.80
2022-09-06T03:49:13.435Z,75.87
2022-09-06T03:51:44.785Z,77.25
2022-09-06T03:54:12.781Z,74.78
2022-09-06T03:56:41.297Z,75.92
2022-09-06T03:59:09.347Z,79.20
2022-09-06T04:01:37.929Z,78.06
2022-09-06T04:04:10.315Z,76.72
2022-09-06T04:06:40.876Z,75.21
2022-09-06T04:09:10.934Z,78.19
2022-09-06T04:12:11.227Z,78.75
2022-09-06T04:14:48.480Z,79.30
2022-09-06T04:17:23.244Z,79.83
2022-09-06T04:20:14.376Z,80.45
2022-09-06T04:22:51.670Z,80.05
2022-09-06T04:25:22.028Z,81.01
2022-09-06T04:27:51.295Z,80.56
2022-09-06T04:30:23.395Z,80.07
2022-09-06T04:32:52.343Z,78.71
2022-09-06T04:35:46.727Z,78.32
2022-09-06T04:38:42.371Z,79.04
2022-09-06T04:41:40.850Z,78.78
2022-09-06T04:44:13.756Z,78.69
2022-09-06T04:46:44.454Z,77.96
2022-09-06T04:49:12.539Z,77.95
2022-09-06T04:51:50.669Z,76.49
2022-09-06T04:54:28.077Z,76.28
2022-09-06T04:57:35.335Z,77.24
2022-09-06T05:00:09.210Z,76.52
2022-09-06T05:02:46.407Z,77.82
2022-09-06T05:05:31.399Z,77.12
2022-09-06T05:08:03.257Z,76.22
2022-09-06T05:10:48.935Z,76.34
2022-09-06T05:13:21.693Z,75.01
2022-09-06T05:16:23.679Z,75.21
2022-09-06T05:19:02.096Z,77.59
2022-09-06T05:21:31.396Z,77.26
2022-09-06T05:24:06.406Z,76.86
2022-09-06T05:26:35.690Z,75.84
2022-09-06T05:29:14.444Z,75.05
2022-09-06T05:31:48.876Z,74.32
2022-09-06T05:34:18.303Z,74.19
2022-09-06T05:36:55.961Z,73.75
2022-09-06T05:39:25.658Z,73.27
2022-09-06T05:42:24.089Z,73.14
2022-09-06T05:44:58.518Z,73.14
2022-09-06T05:47:39.936Z,73.12
2022-09-06T05:50:19.726Z,73.81
2022-09-06T05:53:12.130Z,73.33
2022-09-06T05:55:47.486Z,73.00
2022-09-06T06:01:20.870Z,72.22
2022-09-06T06:04:53.330Z,72.73
2022-09-06T06:07:26.671Z,72.99
2022-09-06T06:09:57.874Z,72.90
2022-09-06T06:12:40.320Z,72.07
2022-09-06T06:15:37.725Z,70.59
2022-09-06T06:27:34.343Z,70.04
2022-09-06T06:30:30.519Z,67.47
2022-09-06T06:33:47.434Z,66.43
2022-09-06T06:36:52.813Z,66.02
2022-09-06T06:47:10.156Z,59.77
2022-09-06T06:58:09.925Z,57.03
2022-09-06T07:00:38.909Z,57.52
2022-09-06T07:03:12.134Z,54.55
2022-09-06T07:08:51.650Z,54.20
2022-09-06T07:11:28.107Z,53.74
2022-09-06T07:13:59.617Z,50.11
2022-09-06T07:16:30.186Z,48.09
2022-09-06T07:19:03.408Z,48.79
2022-09-06T07:25:21.439Z,46.80
2022-09-06T07:28:12.035Z,46.95
2022-09-06T07:34:09.457Z,46.89
2022-09-06T07:40:10.805Z,47.58
2022-09-06T07:43:29.336Z,48.49
2022-09-06T07:46:10.978Z,50.10
2022-09-06T07:48:44.853Z,49.51
2022-09-06T07:51:35.200Z,50.20
2022-09-06T07:54:30.976Z,50.75
2022-09-06T07:57:07.736Z,49.97
2022-09-06T08:00:16.617Z,49.81
2022-09-06T08:03:10.754Z,51.89
2022-09-06T08:08:58.161Z,49.09
2022-09-06T08:11:46.417Z,48.93
2022-09-06T08:14:26.187Z,48.27
2022-09-06T08:16:56.509Z,48.01
2022-09-06T08:23:07.745Z,47.12
2022-09-06T08:25:39.950Z,48.18
2022-09-06T08:28:13.905Z,48.16
2022-09-06T08:30:53.847Z,48.07
2022-09-06T08:33:59.944Z,48.20
2022-09-06T08:36:31.838Z,48.46
2022-09-06T08:39:04.613Z,48.12
2022-09-06T08:41:57.175Z,48.47
2022-09-06T08:47:27.795Z,49.20
2022-09-06T08:50:06.799Z,48.85
2022-09-06T08:53:16.766Z,49.09
2022-09-06T08:56:18.540Z,48.44
2022-09-06T08:59:08.669Z,49.06
2022-09-06T09:02:08.302Z,49.49
2022-09-06T09:04:41.593Z,49.65
2022-09-06T09:07:27.752Z,50.00
2022-09-06T09:10:07.987Z,49.44
2022-09-06T09:12:45.622Z,49.74
2022-09-06T09:15:20.607Z,49.77
2022-09-06T09:18:12.253Z,49.66
2022-09-06T09:20:51.390Z,49.58
2022-09-06T09:23:20.540Z,48.94
2022-09-06T09:25:55.220Z,48.59
2022-09-06T09:28:43.142Z,48.54
2022-09-06T09:34:15.367Z,46.30
2022-09-06T09:39:51.339Z,44.80
2022-09-06T09:42:56.866Z,42.87
2022-09-06T09:45:31.332Z,40.52
2022-09-06T09:48:20.671Z,39.08
2022-09-06T09:50:56.400Z,40.36
2022-09-06T09:53:30.771Z,42.80
2022-09-06T09:56:03.199Z,39.95
2022-09-06T09:58:47.767Z,36.81
2022-09-06T10:01:19.226Z,35.79
2022-09-06T10:10:01.852Z,38.09
2022-09-06T10:12:34.847Z,37.06
2022-09-06T10:15:07.504Z,37.93
2022-09-06T10:17:48.194Z,37.39
2022-09-06T10:20:30.033Z,37.52
2022-09-06T10:23:10.782Z,35.68
2022-09-06T10:25:47.674Z,35.34
2022-09-06T10:28:45.918Z,35.47
2022-09-06T10:31:45.962Z,37.31
2022-09-06T10:34:56.563Z,36.87
2022-09-06T10:37:43.725Z,36.64
2022-09-06T10:40:32.239Z,37.11
2022-09-06T10:43:10.050Z,37.31
2022-09-06T10:45:44.461Z,38.46
2022-09-06T10:48:18.287Z,37.30
2022-09-06T10:50:56.185Z,35.95
2022-09-06T10:53:46.140Z,35.58
2022-09-06T10:56:28.260Z,34.69
2022-09-06T11:06:03.759Z,33.78
2022-09-06T11:09:13.583Z,33.40
2022-09-06T11:11:58.676Z,33.64
2022-09-06T11:14:33.043Z,34.93
2022-09-06T11:17:33.187Z,34.80
2022-09-06T11:20:55.778Z,34.57
2022-09-06T11:23:50.696Z,34.01
2022-09-06T11:26:36.619Z,33.90
2022-09-06T11:29:12.443Z,34.47
2022-09-06T11:34:58.476Z,34.10
2022-09-06T11:37:36.619Z,34.17
2022-09-06T11:43:01.325Z,33.41
2022-09-06T11:53:17.163Z,32.24
2022-09-06T11:55:50.312Z,31.08
2022-09-06T11:58:19.855Z,31.09
2022-09-06T12:01:08.006Z,31.76
2022-09-06T12:06:37.254Z,32.80
2022-09-06T12:09:30.624Z,34.00
2022-09-06T12:12:48.711Z,33.58
2022-09-06T12:15:55.742Z,33.41
2022-09-06T12:18:49.367Z,34.39
2022-09-06T12:21:40.625Z,34.91
2022-09-06T12:24:33.997Z,35.35
2022-09-06T12:27:17.630Z,36.16
2022-09-06T12:30:18.921Z,37.03
2022-09-06T12:32:50.092Z,36.78
2022-09-06T12:38:17.331Z,35.42
2022-09-06T12:40:48.360Z,35.73
2022-09-06T12:43:17.516Z,36.46
2022-09-06T12:45:51.872Z,37.16
2022-09-06T12:48:42.754Z,37.44
2022-09-06T12:51:32.546Z,37.89
2022-09-06T12:54:06.453Z,38.50
2022-09-06T12:56:37.621Z,38.46
2022-09-06T12:59:23.277Z,38.38
2022-09-06T13:01:56.374Z,37.48
2022-09-06T13:04:40.054Z,37.92
2022-09-06T13:07:39.288Z,37.81
2022-09-06T13:10:14.103Z,37.96
2022-09-06T13:12:56.191Z,38.00
2022-09-06T13:15:25.702Z,38.74
2022-09-06T13:18:20.379Z,39.14
2022-09-06T13:20:59.720Z,39.54
2022-09-06T13:24:18.046Z,40.03
2022-09-06T13:26:59.734Z,40.48
2022-09-06T13:29:38.686Z,41.02
2022-09-06T13:32:15.004Z,42.42
2022-09-06T13:35:10.372Z,42.92
2022-09-06T13:37:58.644Z,42.35
2022-09-06T13:41:09.807Z,42.72
2022-09-06T13:43:49.363Z,42.10
2022-09-06T13:46:19.675Z,41.65
2022-09-06T13:48:52.074Z,41.72
2022-09-06T13:51:41.542Z,42.05
2022-09-06T13:57:50.732Z,42.31
2022-09-06T14:00:30.259Z,42.35
2022-09-06T14:07:19.858Z,43.09
2022-09-06T14:13:14.973Z,45.04
2022-09-06T14:15:51.998Z,45.59
2022-09-06T14:18:22.905Z,46.57
2022-09-06T14:20:59.267Z,47.25
2022-09-06T14:23:28.111Z,47.51
2022-09-06T14:26:00.768Z,47.81
2022-09-06T14:29:00.680Z,49.13
2022-09-06T14:31:52.772Z,49.00
2022-09-06T14:34:23.042Z,49.28
2022-09-06T14:40:45.695Z,49.22
2022-09-06T14:43:16.415Z,50.72
2022-09-06T14:45:44.687Z,50.73
2022-09-06T14:48:16.808Z,51.46
2022-09-06T14:50:45.039Z,51.77
2022-09-06T14:53:36.774Z,52.33
2022-09-06T14:56:11.395Z,52.49
2022-09-06T14:58:41.705Z,52.14
2022-09-06T15:01:13.311Z,51.12
2022-09-06T15:03:49.614Z,50.47
2022-09-06T15:06:19.986Z,51.55
2022-09-06T15:08:59.122Z,52.96
2022-09-06T15:11:30.587Z,52.06
2022-09-06T15:14:04.202Z,51.24
2022-09-06T15:16:35.195Z,51.19
2022-09-06T15:19:11.858Z,51.44
2022-09-06T15:21:40.693Z,51.03
2022-09-06T15:29:17.219Z,51.48
2022-09-06T15:32:02.084Z,52.29
2022-09-06T15:34:32.016Z,52.17
2022-09-06T15:38:17.814Z,53.69
2022-09-06T15:45:14.418Z,52.13
2022-09-06T15:57:31.199Z,54.83
2022-09-06T16:00:24.991Z,55.73
2022-09-06T16:03:16.569Z,56.53
2022-09-06T16:06:33.604Z,56.12
2022-09-06T16:09:14.125Z,55.36
2022-09-06T16:11:43.230Z,55.46
2022-09-06T16:14:13.048Z,55.67
2022-09-06T16:16:42.459Z,57.95
2022-09-06T16:19:13.652Z,59.10
2022-09-06T16:21:42.569Z,59.67
2022-09-06T16:24:11.986Z,60.93
2022-09-06T16:26:46.547Z,60.82
2022-09-06T16:29:16.545Z,61.58
2022-09-06T16:31:51.592Z,64.67
2022-09-06T16:34:26.284Z,65.83
2022-09-06T16:36:59.489Z,66.70
2022-09-06T16:39:29.291Z,66.57
2022-09-06T16:41:59.236Z,65.22
2022-09-06T16:44:27.925Z,64.41
2022-09-06T16:46:57.344Z,64.92
2022-09-06T16:49:25.581Z,65.19
2022-09-06T16:51:58.689Z,66.02
2022-09-06T16:54:29.350Z,66.16
2022-09-06T16:56:57.451Z,65.08
2022-09-06T17:41:58.245Z,75.16
2022-09-06T17:52:53.750Z,74.26
2022-09-06T18:06:15.830Z,75.18
2022-09-06T18:08:44.305Z,78.31
2022-09-06T18:11:21.963Z,73.67
2022-09-06T18:14:02.971Z,71.91
2022-09-06T18:16:33.054Z,70.42
2022-09-06T18:19:24.025Z,70.64
2022-09-06T18:21:52.278Z,74.94
2022-09-06T18:24:20.481Z,76.00
2022-09-06T18:26:49.336Z,76.60
2022-09-06T18:29:18.636Z,77.59
2022-09-06T18:31:47.329Z,80.67
2022-09-06T18:34:20.875Z,79.50
2022-09-06T18:36:50.710Z,81.37
2022-09-06T18:39:22.871Z,79.23
2022-09-06T18:42:01.178Z,79.99
2022-09-06T18:44:34.998Z,80.36
2022-09-06T18:47:07.220Z,79.95
2022-09-06T18:49:38.545Z,77.12
2022-09-06T18:52:12.558Z,75.42
2022-09-06T18:54:46.211Z,74.08
2022-09-06T18:57:24.108Z,77.76
2022-09-06T19:00:28.528Z,80.33
2022-09-06T19:03:36.656Z,79.90
2022-09-06T19:06:33.097Z,82.26
2022-09-06T19:09:09.377Z,81.50
2022-09-06T19:11:43.069Z,75.77
2022-09-06T19:14:54.702Z,74.20
2022-09-06T19:17:34.918Z,75.78
2022-09-06T19:23:38.033Z,78.95
2022-09-06T19:26:35.627Z,75.64
2022-09-06T19:29:24.621Z,76.96
2022-09-06T19:31:59.379Z,74.29
2022-09-06T19:34:54.787Z,77.52
2022-09-06T19:37:29.982Z,76.80
2022-09-06T19:40:19.505Z,76.52
2022-09-06T19:42:49.657Z,77.56
2022-09-06T19:45:27.715Z,76.99
2022-09-06T19:48:18.405Z,77.64
2022-09-06T19:51:02.343Z,77.68
2022-09-06T19:53:31.642Z,80.29
2022-09-06T19:56:24.517Z,78.43
2022-09-06T19:59:06.888Z,80.33
2022-09-06T20:01:40.712Z,79.21
2022-09-06T20:04:14.887Z,80.02
2022-09-06T20:06:47.986Z,81.38
2022-09-06T20:09:17.663Z,80.75
2022-09-06T20:11:47.608Z,80.42
2022-09-06T20:14:16.317Z,76.75
2022-09-06T20:16:48.421Z,79.34
2022-09-06T20:19:36.225Z,80.17
2022-09-06T20:22:16.248Z,81.02
2022-09-06T20:24:53.629Z,81.07
2022-09-06T20:27:44.801Z,81.98
2022-09-06T20:30:40.881Z,83.14
2022-09-06T20:33:15.536Z,81.34
2022-09-06T20:35:47.423Z,81.63
2022-09-06T20:38:16.259Z,81.12
2022-09-06T20:41:16.367Z,78.91
2022-09-06T20:43:51.508Z,80.36
2022-09-06T20:46:22.368Z,78.51
2022-09-06T20:48:52.250Z,80.06
2022-09-06T20:51:21.878Z,79.96
2022-09-06T20:53:59.891Z,80.11
2022-09-06T20:56:59.735Z,80.63
2022-09-06T20:59:30.335Z,80.99
2022-09-06T21:01:59.010Z,81.33
2022-09-06T21:04:29.786Z,81.61
2022-09-06T21:06:59.335Z,80.59
2022-09-06T21:09:28.649Z,80.64
2022-09-06T21:11:57.954Z,80.20
2022-09-06T21:14:27.340Z,80.19
2022-09-06T21:16:58.860Z,81.94
2022-09-06T21:19:27.237Z,83.05
2022-09-06T21:21:55.424Z,81.86
2022-09-06T21:24:23.834Z,82.36
2022-09-06T21:26:55.610Z,83.16
2022-09-06T21:29:24.851Z,85.44
2022-09-06T21:31:57.169Z,84.20
2022-09-06T21:34:25.716Z,83.51
2022-09-06T21:36:55.045Z,83.82
2022-09-06T21:39:26.226Z,84.26
2022-09-06T21:41:55.554Z,83.18
2022-09-06T21:44:24.031Z,82.35
2022-09-06T21:46:56.143Z,82.72
2022-09-06T21:49:24.196Z,83.79
2022-09-06T21:51:52.580Z,82.74
2022-09-06T21:54:26.781Z,83.58
2022-09-06T21:57:02.115Z,83.43
2022-09-06T21:59:30.233Z,82.60
2022-09-06T22:01:58.974Z,83.09
2022-09-06T22:04:27.051Z,85.07
2022-09-06T22:06:55.208Z,84.33
2022-09-06T22:09:25.730Z,84.14
2022-09-06T22:11:59.865Z,85.10
2022-09-06T22:14:27.877Z,84.31
2022-09-06T22:16:55.931Z,81.95
2022-09-06T22:19:24.032Z,82.91
2022-09-06T22:21:55.260Z,83.92
2022-09-06T22:24:28.191Z,83.37
2022-09-06T22:26:57.246Z,84.75
2022-09-06T22:29:27.834Z,84.47
2022-09-06T22:31:56.501Z,82.26
2022-09-06T22:34:28.378Z,82.60
2022-09-06T22:36:56.342Z,82.71
2022-09-06T22:39:24.406Z,82.51
2022-09-06T22:41:53.542Z,84.68
2022-09-06T22:44:27.039Z,84.12
2022-09-06T22:46:55.283Z,82.75
2022-09-06T22:49:23.860Z,84.36
2022-09-06T22:51:53.801Z,83.70
2022-09-06T22:54:21.797Z,84.25
2022-09-06T22:56:50.429Z,84.38
2022-09-06T22:59:19.611Z,84.32
2022-09-06T23:01:51.490Z,84.26
2022-09-06T23:04:20.765Z,83.84
2022-09-06T23:09:40.914Z,85.44
2022-09-06T23:12:13.909Z,84.40
2022-09-06T23:14:41.986Z,85.01
2022-09-06T23:17:10.529Z,85.12
2022-09-06T23:19:39.127Z,86.30
2022-09-06T23:22:08.759Z,86.99
2022-09-06T23:24:39.089Z,86.49
2022-09-06T23:27:13.126Z,86.07
2022-09-06T23:29:48.739Z,86.19
2022-09-06T23:32:22.106Z,86.23
2022-09-06T23:34:55.915Z,86.39
2022-09-06T23:37:26.157Z,85.34
2022-09-06T23:39:57.530Z,85.64
2022-09-06T23:42:25.636Z,87.05
2022-09-06T23:45:00.227Z,88.49
2022-09-06T23:47:30.784Z,87.41
2022-09-06T23:49:58.850Z,87.48
2022-09-06T23:52:30.777Z,86.12
2022-09-06T23:55:00.093Z,85.49
2022-09-06T23:57:28.217Z,85.60
